ドバイ の空港の天気 - METARとTAF

ドバイ国際空港 ( OMDB / DXB ) - アラブ首長国連邦 ドバイ
飛行場実況気象(Metar)
観測時間07/29 06:00 GST (07/29 02:00 UTC)
風向・風速南 3m/s
視程8000m
天気現象
なし
気温35℃
湿度37%
気圧993hPa
METAROMDB 290200Z 19005KT 8000 NSC 35/18 Q0993 NOSIG
過去の天気等 Google飛行場航空写真 Wunderground天気予報

過去48時間のMETAR

飛行場予報(TAF)
発表時間: 7/29 03:00 GST (7/28 23:00 UTC)
予報対象時間: 29日4時 GST ~ 30日10時 GST
風向・風速南 4m/s
視程7000m
なし
29日4時 GST から 確率 30% で
視程4000m
天気現象風塵
29日7時 GST ~ 29日12時 GST に 確率 30% で一時的に
風向・風速南南西 9m/s
29日7時 GST から 確率 30% で
視程3000m
天気現象風塵
29日11時 GST ~ 29日13時 GST に徐々に
風向・風速西北西 7m/s
29日19時 GST ~ 29日21時 GST に徐々に
風向・風速不定 1m/s
30日4時 GST から 確率 30% で
視程4000m
天気現象煙霧
30日7時 GST ~ 30日9時 GST に徐々に
風向・風速南 5m/s
TAF OMDB 282300Z 2900/3006 18007KT 7000 NSC
PROB30 2900/2903 4000 DU
PROB30 TEMPO 2903/2908 21017KT
PROB30 2903/2915 3000 DU
BECMG 2907/2909 30014KT
BECMG 2915/2917 VRB02KT
PROB30 3000/3003 4000 HZ
BECMG 3003/3005 17010KT